Uni Wealth — VRFV4 — position and weather

sailwx.info

Track history (hours):
 
Tides and Currents Weather Stations Pressure Air Temp Water Temp Dewpoint Dewpoint Depression Visibility Wind Speed Wind Dir Waves Ship Positions

Uni Wealth

Last reported at 2017-Feb-23 08:33 UTC. Time now 2017-Feb-23 09:21 UTC.
Position N 53°53' E 009°06'.

Length 170 m; draft 6.1 m.

Type: Cargo ship. MMSI: 477621200.

Date/timePositionNaut miles runAvg speedWind from/ knotsBaromVisibWave heightAir tempDewpointWater temp
2017-Feb-23 08:33N 53°53' E 009°06'9 8.7
2017-Feb-23 07:33N 53°50' E 008°52'1110.9
2017-Feb-23 06:33N 53°57' E 008°37'1212.3
2017-Feb-23 05:33N 53°60' E 008°17'1010.5
2017-Feb-23 04:33N 53°58' E 007°59'1111.2
2017-Feb-23 03:33N 53°56' E 007°40'12210.2
2017-Feb-22 15:32N 53°09' E 004°30'1111.3
2017-Feb-22 14:33N 52°60' E 004°21'1211.6
2017-Feb-22 13:33N 52°49' E 004°13'1211.8
2017-Feb-22 12:33N 52°40' E 004°01'7811.1
2017-Feb-22 05:32N 51°38' E 002°43'1010.1
2017-Feb-22 04:33N 51°29' E 002°44'7 7.4
2017-Feb-22 03:34N 51°22' E 002°50'9 8.9
2017-Feb-22 02:34N 51°24' E 003°04'1010.1
2017-Feb-22 01:34N 51°25' E 003°20'1010.3
2017-Feb-22 00:33N 51°26' E 003°36'6 6.4
2017-Feb-21 23:33N 51°22' E 003°45'4 3.5
2017-Feb-21 22:32N 51°20' E 003°49'5 4.9
2017-Feb-21 21:34N 51°15' E 003°49'7 6.6
2017-Feb-21 20:33N 51°08' E 003°47'1 0.8
2017-Feb-21 19:32N 51°08' E 003°46'0 0.0
2017-Feb-21 18:32N 51°08' E 003°46'0 0.0
2017-Feb-21 17:32N 51°08' E 003°46'0 0.0
2017-Feb-21 16:32N 51°08' E 003°46'0 0.0
2017-Feb-21 15:32N 51°08' E 003°46'0 0.0
2017-Feb-21 14:32N 51°08' E 003°46'0 0.0
2017-Feb-21 13:32N 51°08' E 003°46'0 0.0
2017-Feb-21 12:29N 51°08' E 003°46'0 0.0
2017-Feb-21 11:32N 51°08' E 003°46'0 0.0
2017-Feb-21 10:32N 51°08' E 003°46'0 0.0
2017-Feb-21 09:32N 51°08' E 003°46'0 0.0
2017-Feb-21 08:29N 51°08' E 003°46'0 0.0
2017-Feb-21 07:29N 51°08' E 003°46'0 0.0
2017-Feb-21 06:29N 51°08' E 003°46'0 0.0
2017-Feb-21 05:32N 51°08' E 003°46'0 0.0
2017-Feb-21 04:32N 51°08' E 003°46'0 0.0
2017-Feb-21 03:32N 51°08' E 003°46'0 0.0
2017-Feb-21 02:32N 51°08' E 003°46'0 0.0
2017-Feb-21 01:32N 51°08' E 003°46'0 0.0
2017-Feb-21 00:32N 51°08' E 003°46'0 0.0
2017-Feb-20 23:32N 51°08' E 003°46'0 0.0
2017-Feb-20 22:32N 51°08' E 003°46'0 0.0
2017-Feb-20 21:32N 51°08' E 003°46'0 0.0
2017-Feb-20 20:32N 51°08' E 003°46'0 0.0
2017-Feb-20 19:29N 51°08' E 003°46'0 0.0
2017-Feb-20 18:32N 51°08' E 003°46'0 0.0
2017-Feb-20 17:29N 51°08' E 003°46'0 0.0
2017-Feb-20 16:32N 51°08' E 003°46'0 0.0
2017-Feb-20 15:32N 51°08' E 003°46'0 0.0
2017-Feb-20 14:32N 51°08' E 003°46'0 0.0
2017-Feb-20 13:32N 51°08' E 003°46'0 0.0
2017-Feb-20 12:32N 51°08' E 003°46'0 0.0
2017-Feb-20 11:32N 51°08' E 003°46'0 0.0
2017-Feb-20 10:32N 51°08' E 003°46'0 0.0
2017-Feb-20 09:32N 51°08' E 003°46'0 0.0
2017-Feb-20 08:32N 51°08' E 003°46'0 0.0
2017-Feb-20 07:29N 51°08' E 003°46'0 0.0
2017-Feb-20 06:29N 51°08' E 003°46'0 0.0
2017-Feb-20 05:29N 51°08' E 003°46'0 0.0
2017-Feb-20 04:26N 51°08' E 003°46'0 0.0
2017-Feb-20 03:29N 51°08' E 003°46'0 0.0
2017-Feb-20 02:29N 51°08' E 003°46'0 0.0
2017-Feb-20 01:29N 51°08' E 003°46'0 0.0
2017-Feb-20 00:29N 51°08' E 003°46'0 0.0
2017-Feb-19 23:32N 51°08' E 003°46'0 0.0
2017-Feb-19 22:32N 51°08' E 003°46'0 0.0
2017-Feb-19 21:32N 51°08' E 003°46'0 0.0
2017-Feb-19 20:32N 51°08' E 003°46'0 0.0
2017-Feb-19 19:32N 51°08' E 003°46'0 0.0
2017-Feb-19 18:32N 51°08' E 003°46'0 0.0
2017-Feb-19 17:32N 51°08' E 003°46'0 0.0
2017-Feb-19 16:32N 51°08' E 003°46'0 0.0
2017-Feb-19 15:26N 51°08' E 003°46'0 0.0
2017-Feb-19 14:26N 51°08' E 003°46'0 0.0
2017-Feb-19 13:26N 51°08' E 003°46'0 0.0
2017-Feb-19 12:26N 51°08' E 003°46'0 0.0
2017-Feb-19 11:29N 51°08' E 003°46'0 0.0
2017-Feb-19 10:29N 51°08' E 003°46'0 0.0
2017-Feb-19 09:29N 51°08' E 003°46'0 0.0
2017-Feb-19 08:29N 51°08' E 003°46'0 0.0
2017-Feb-19 07:32N 51°08' E 003°46'0 0.0
2017-Feb-19 06:32N 51°08' E 003°46'0 0.0
2017-Feb-19 05:32N 51°08' E 003°46'0 0.0
2017-Feb-19 04:32N 51°08' E 003°46'0 0.0
2017-Feb-19 03:32N 51°08' E 003°46'0 0.0
2017-Feb-19 02:32N 51°08' E 003°46'0 0.0
2017-Feb-19 01:29N 51°08' E 003°46'0 0.0
2017-Feb-19 00:32N 51°08' E 003°46'0 0.0
2017-Feb-18 23:32N 51°08' E 003°46'0 0.0
2017-Feb-18 22:32N 51°08' E 003°46'0 0.0
2017-Feb-18 21:29N 51°08' E 003°46'0 0.0
2017-Feb-18 20:32N 51°08' E 003°46'0 0.0
2017-Feb-18 19:32N 51°08' E 003°46'0 0.0
2017-Feb-18 18:32N 51°08' E 003°46'0 0.0
2017-Feb-18 17:32N 51°08' E 003°46'0 0.0
2017-Feb-18 16:29N 51°08' E 003°46'0 0.0
2017-Feb-18 15:32N 51°08' E 003°46'0 0.0
2017-Feb-18 14:32N 51°08' E 003°46'0 0.0
2017-Feb-18 13:32N 51°08' E 003°46'0 0.0
2017-Feb-18 12:32N 51°08' E 003°46'0 0.0
2017-Feb-18 11:32N 51°08' E 003°46'0 0.0
2017-Feb-18 10:32N 51°08' E 003°46'0 0.0
2017-Feb-18 09:32N 51°08' E 003°46'0 0.0
2017-Feb-18 08:32N 51°08' E 003°46'0 0.0
2017-Feb-18 07:32N 51°08' E 003°46'0 0.0
2017-Feb-18 06:32N 51°08' E 003°46'0 0.0
2017-Feb-18 05:26N 51°08' E 003°46'0 0.0
2017-Feb-18 04:32N 51°08' E 003°46'0 0.0
2017-Feb-18 03:32N 51°08' E 003°46'0 0.0
2017-Feb-18 02:32N 51°08' E 003°46'0 0.0
2017-Feb-18 01:32N 51°08' E 003°46'0 0.0
2017-Feb-18 00:29N 51°08' E 003°46'0 0.0
2017-Feb-17 23:32N 51°08' E 003°46'0 0.0
2017-Feb-17 22:29N 51°08' E 003°46'0 0.0
2017-Feb-17 21:32N 51°08' E 003°46'0 0.0
2017-Feb-17 20:32N 51°08' E 003°46'0 0.0
2017-Feb-17 19:32N 51°08' E 003°46'0 0.0
2017-Feb-17 18:32N 51°08' E 003°46'0 0.0
2017-Feb-17 17:32N 51°08' E 003°46'0 0.0
2017-Feb-17 16:29N 51°08' E 003°46'0 0.0
2017-Feb-17 15:32N 51°08' E 003°46'0 0.0
2017-Feb-17 14:32N 51°08' E 003°46'0 0.0
2017-Feb-17 13:32N 51°08' E 003°46'0 0.0
2017-Feb-17 12:32N 51°08' E 003°46'0 0.0
2017-Feb-17 11:32N 51°08' E 003°46'0 0.0
2017-Feb-17 10:29N 51°08' E 003°46'0 0.0
2017-Feb-17 09:32N 51°08' E 003°46'0 0.0
2017-Feb-17 08:32N 51°08' E 003°46'0 0.0
2017-Feb-17 07:32N 51°08' E 003°46'1 0.9
2017-Feb-17 06:34N 51°07' E 003°45'5 4.7
2017-Feb-17 05:34N 51°11' E 003°48'5 4.8
2017-Feb-17 04:34N 51°16' E 003°50'4 3.8
2017-Feb-17 03:33N 51°20' E 003°49'0 0.0
2017-Feb-17 02:33N 51°20' E 003°49'1 0.7
2017-Feb-17 01:33N 51°20' E 003°49'3 2.7
2017-Feb-17 00:33N 51°22' E 003°45'7 7.3
2017-Feb-16 23:33N 51°26' E 003°35'9 8.9
2017-Feb-16 22:33N 51°24' E 003°21'9 8.6
2017-Feb-16 21:33N 51°24' E 003°07'9 9.3
2017-Feb-16 20:33N 51°22' E 002°52'10 9.6
2017-Feb-16 19:33N 51°21' E 002°37'3 2.4
2017-Feb-16 18:31N 51°20' E 002°33'0 0.0
2017-Feb-16 17:28N 51°20' E 002°33'1 1.6
2017-Feb-16 16:33N 51°22' E 002°33'7 7.2
2017-Feb-16 15:33N 51°20' E 002°22'1212.3
2017-Feb-16 14:33N 51°13' E 002°05'1212.0
2017-Feb-16 13:33N 51°07' E 001°49'1111.0
2017-Feb-16 12:33N 50°60' E 001°35'10 9.6
2017-Feb-16 11:29N 50°51' E 001°27'9 9.2
2017-Feb-16 10:31N 50°43' E 001°21'45 8.8
2017-Feb-16 05:24N 50°23' E 000°18'9 9.3
2017-Feb-16 04:28N 50°20' E 000°05'9 9.6
2017-Feb-16 03:33N 50°18' W 000°08'1510.2
2017-Feb-16 02:05N 50°14' W 000°31'2212.3
2017-Feb-16 00:19N 50°08' W 001°04'1213.9
2017-Feb-15 23:26N 50°05' W 001°22'1714.3
2017-Feb-15 22:14N 50°01' W 001°48'3812.4
2017-Feb-15 19:09N 49°50' W 002°46'710.7
2017-Feb-15 18:31N 49°49' W 002°56'1010.1
2017-Feb-15 17:32N 49°46' W 003°10'9 9.6
2017-Feb-15 16:33N 49°43' W 003°24'10 9.5
2017-Feb-15 15:31N 49°37' W 003°37'7010.0
2017-Feb-15 08:32N 48°58' W 005°06'1312.3
2017-Feb-15 07:31N 48°52' W 005°22'  
Track history (hours):
 
Tides and Currents Weather Stations Pressure Air Temp Water Temp Dewpoint Dewpoint Depression Visibility Wind Speed Wind Dir Waves Ship Positions

Uni Wealth

Last reported at 2017-Feb-23 08:33 UTC. Time now 2017-Feb-23 09:21 UTC.
Position N 53°53' E 009°06'.

Length 170 m; draft 6.1 m.

Type: Cargo ship. MMSI: 477621200.

Date/timePositionNaut miles runAvg speedWind from/ knotsBaromVisibWave heightAir tempDewpointWater temp
2017-Feb-23 08:33N 53°53' E 009°06'9 8.7
2017-Feb-23 07:33N 53°50' E 008°52'1110.9
2017-Feb-23 06:33N 53°57' E 008°37'1212.3
2017-Feb-23 05:33N 53°60' E 008°17'1010.5
2017-Feb-23 04:33N 53°58' E 007°59'1111.2
2017-Feb-23 03:33N 53°56' E 007°40'12210.2
2017-Feb-22 15:32N 53°09' E 004°30'1111.3
2017-Feb-22 14:33N 52°60' E 004°21'1211.6
2017-Feb-22 13:33N 52°49' E 004°13'1211.8
2017-Feb-22 12:33N 52°40' E 004°01'7811.1
2017-Feb-22 05:32N 51°38' E 002°43'1010.1
2017-Feb-22 04:33N 51°29' E 002°44'7 7.4
2017-Feb-22 03:34N 51°22' E 002°50'9 8.9
2017-Feb-22 02:34N 51°24' E 003°04'1010.1
2017-Feb-22 01:34N 51°25' E 003°20'1010.3
2017-Feb-22 00:33N 51°26' E 003°36'6 6.4
2017-Feb-21 23:33N 51°22' E 003°45'4 3.5
2017-Feb-21 22:32N 51°20' E 003°49'5 4.9
2017-Feb-21 21:34N 51°15' E 003°49'7 6.6
2017-Feb-21 20:33N 51°08' E 003°47'1 0.8
2017-Feb-21 19:32N 51°08' E 003°46'0 0.0
2017-Feb-21 18:32N 51°08' E 003°46'0 0.0
2017-Feb-21 17:32N 51°08' E 003°46'0 0.0
2017-Feb-21 16:32N 51°08' E 003°46'0 0.0
2017-Feb-21 15:32N 51°08' E 003°46'0 0.0
2017-Feb-21 14:32N 51°08' E 003°46'0 0.0
2017-Feb-21 13:32N 51°08' E 003°46'0 0.0
2017-Feb-21 12:29N 51°08' E 003°46'0 0.0
2017-Feb-21 11:32N 51°08' E 003°46'0 0.0
2017-Feb-21 10:32N 51°08' E 003°46'0 0.0
2017-Feb-21 09:32N 51°08' E 003°46'0 0.0
2017-Feb-21 08:29N 51°08' E 003°46'0 0.0
2017-Feb-21 07:29N 51°08' E 003°46'0 0.0
2017-Feb-21 06:29N 51°08' E 003°46'0 0.0
2017-Feb-21 05:32N 51°08' E 003°46'0 0.0
2017-Feb-21 04:32N 51°08' E 003°46'0 0.0
2017-Feb-21 03:32N 51°08' E 003°46'0 0.0
2017-Feb-21 02:32N 51°08' E 003°46'0 0.0
2017-Feb-21 01:32N 51°08' E 003°46'0 0.0
2017-Feb-21 00:32N 51°08' E 003°46'0 0.0
2017-Feb-20 23:32N 51°08' E 003°46'0 0.0
2017-Feb-20 22:32N 51°08' E 003°46'0 0.0
2017-Feb-20 21:32N 51°08' E 003°46'0 0.0
2017-Feb-20 20:32N 51°08' E 003°46'0 0.0
2017-Feb-20 19:29N 51°08' E 003°46'0 0.0
2017-Feb-20 18:32N 51°08' E 003°46'0 0.0
2017-Feb-20 17:29N 51°08' E 003°46'0 0.0
2017-Feb-20 16:32N 51°08' E 003°46'0 0.0
2017-Feb-20 15:32N 51°08' E 003°46'0 0.0
2017-Feb-20 14:32N 51°08' E 003°46'0 0.0
2017-Feb-20 13:32N 51°08' E 003°46'0 0.0
2017-Feb-20 12:32N 51°08' E 003°46'0 0.0
2017-Feb-20 11:32N 51°08' E 003°46'0 0.0
2017-Feb-20 10:32N 51°08' E 003°46'0 0.0
2017-Feb-20 09:32N 51°08' E 003°46'0 0.0
2017-Feb-20 08:32N 51°08' E 003°46'0 0.0
2017-Feb-20 07:29N 51°08' E 003°46'0 0.0
2017-Feb-20 06:29N 51°08' E 003°46'0 0.0
2017-Feb-20 05:29N 51°08' E 003°46'0 0.0
2017-Feb-20 04:26N 51°08' E 003°46'0 0.0
2017-Feb-20 03:29N 51°08' E 003°46'0 0.0
2017-Feb-20 02:29N 51°08' E 003°46'0 0.0
2017-Feb-20 01:29N 51°08' E 003°46'0 0.0
2017-Feb-20 00:29N 51°08' E 003°46'0 0.0
2017-Feb-19 23:32N 51°08' E 003°46'0 0.0
2017-Feb-19 22:32N 51°08' E 003°46'0 0.0
2017-Feb-19 21:32N 51°08' E 003°46'0 0.0
2017-Feb-19 20:32N 51°08' E 003°46'0 0.0
2017-Feb-19 19:32N 51°08' E 003°46'0 0.0
2017-Feb-19 18:32N 51°08' E 003°46'0 0.0
2017-Feb-19 17:32N 51°08' E 003°46'0 0.0
2017-Feb-19 16:32N 51°08' E 003°46'0 0.0
2017-Feb-19 15:26N 51°08' E 003°46'0 0.0
2017-Feb-19 14:26N 51°08' E 003°46'0 0.0
2017-Feb-19 13:26N 51°08' E 003°46'0 0.0
2017-Feb-19 12:26N 51°08' E 003°46'0 0.0
2017-Feb-19 11:29N 51°08' E 003°46'0 0.0
2017-Feb-19 10:29N 51°08' E 003°46'0 0.0
2017-Feb-19 09:29N 51°08' E 003°46'0 0.0
2017-Feb-19 08:29N 51°08' E 003°46'0 0.0
2017-Feb-19 07:32N 51°08' E 003°46'0 0.0
2017-Feb-19 06:32N 51°08' E 003°46'0 0.0
2017-Feb-19 05:32N 51°08' E 003°46'0 0.0
2017-Feb-19 04:32N 51°08' E 003°46'0 0.0
2017-Feb-19 03:32N 51°08' E 003°46'0 0.0
2017-Feb-19 02:32N 51°08' E 003°46'0 0.0
2017-Feb-19 01:29N 51°08' E 003°46'0 0.0
2017-Feb-19 00:32N 51°08' E 003°46'0 0.0
2017-Feb-18 23:32N 51°08' E 003°46'0 0.0
2017-Feb-18 22:32N 51°08' E 003°46'0 0.0
2017-Feb-18 21:29N 51°08' E 003°46'0 0.0
2017-Feb-18 20:32N 51°08' E 003°46'0 0.0
2017-Feb-18 19:32N 51°08' E 003°46'0 0.0
2017-Feb-18 18:32N 51°08' E 003°46'0 0.0
2017-Feb-18 17:32N 51°08' E 003°46'0 0.0
2017-Feb-18 16:29N 51°08' E 003°46'0 0.0
2017-Feb-18 15:32N 51°08' E 003°46'0 0.0
2017-Feb-18 14:32N 51°08' E 003°46'0 0.0
2017-Feb-18 13:32N 51°08' E 003°46'0 0.0
2017-Feb-18 12:32N 51°08' E 003°46'0 0.0
2017-Feb-18 11:32N 51°08' E 003°46'0 0.0
2017-Feb-18 10:32N 51°08' E 003°46'0 0.0
2017-Feb-18 09:32N 51°08' E 003°46'0 0.0
2017-Feb-18 08:32N 51°08' E 003°46'0 0.0
2017-Feb-18 07:32N 51°08' E 003°46'0 0.0
2017-Feb-18 06:32N 51°08' E 003°46'0 0.0
2017-Feb-18 05:26N 51°08' E 003°46'0 0.0
2017-Feb-18 04:32N 51°08' E 003°46'0 0.0
2017-Feb-18 03:32N 51°08' E 003°46'0 0.0
2017-Feb-18 02:32N 51°08' E 003°46'0 0.0
2017-Feb-18 01:32N 51°08' E 003°46'0 0.0
2017-Feb-18 00:29N 51°08' E 003°46'0 0.0
2017-Feb-17 23:32N 51°08' E 003°46'0 0.0
2017-Feb-17 22:29N 51°08' E 003°46'0 0.0
2017-Feb-17 21:32N 51°08' E 003°46'0 0.0
2017-Feb-17 20:32N 51°08' E 003°46'0 0.0
2017-Feb-17 19:32N 51°08' E 003°46'0 0.0
2017-Feb-17 18:32N 51°08' E 003°46'0 0.0
2017-Feb-17 17:32N 51°08' E 003°46'0 0.0
2017-Feb-17 16:29N 51°08' E 003°46'0 0.0
2017-Feb-17 15:32N 51°08' E 003°46'0 0.0
2017-Feb-17 14:32N 51°08' E 003°46'0 0.0
2017-Feb-17 13:32N 51°08' E 003°46'0 0.0
2017-Feb-17 12:32N 51°08' E 003°46'0 0.0
2017-Feb-17 11:32N 51°08' E 003°46'0 0.0
2017-Feb-17 10:29N 51°08' E 003°46'0 0.0
2017-Feb-17 09:32N 51°08' E 003°46'0 0.0
2017-Feb-17 08:32N 51°08' E 003°46'0 0.0
2017-Feb-17 07:32N 51°08' E 003°46'1 0.9
2017-Feb-17 06:34N 51°07' E 003°45'5 4.7
2017-Feb-17 05:34N 51°11' E 003°48'5 4.8
2017-Feb-17 04:34N 51°16' E 003°50'4 3.8
2017-Feb-17 03:33N 51°20' E 003°49'0 0.0
2017-Feb-17 02:33N 51°20' E 003°49'1 0.7
2017-Feb-17 01:33N 51°20' E 003°49'3 2.7
2017-Feb-17 00:33N 51°22' E 003°45'7 7.3
2017-Feb-16 23:33N 51°26' E 003°35'9 8.9
2017-Feb-16 22:33N 51°24' E 003°21'9 8.6
2017-Feb-16 21:33N 51°24' E 003°07'9 9.3
2017-Feb-16 20:33N 51°22' E 002°52'10 9.6
2017-Feb-16 19:33N 51°21' E 002°37'3 2.4
2017-Feb-16 18:31N 51°20' E 002°33'0 0.0
2017-Feb-16 17:28N 51°20' E 002°33'1 1.6
2017-Feb-16 16:33N 51°22' E 002°33'7 7.2
2017-Feb-16 15:33N 51°20' E 002°22'1212.3
2017-Feb-16 14:33N 51°13' E 002°05'1212.0
2017-Feb-16 13:33N 51°07' E 001°49'1111.0
2017-Feb-16 12:33N 50°60' E 001°35'10 9.6
2017-Feb-16 11:29N 50°51' E 001°27'9 9.2
2017-Feb-16 10:31N 50°43' E 001°21'45 8.8
2017-Feb-16 05:24N 50°23' E 000°18'9 9.3
2017-Feb-16 04:28N 50°20' E 000°05'9 9.6
2017-Feb-16 03:33N 50°18' W 000°08'1510.2
2017-Feb-16 02:05N 50°14' W 000°31'2212.3
2017-Feb-16 00:19N 50°08' W 001°04'1213.9
2017-Feb-15 23:26N 50°05' W 001°22'1714.3
2017-Feb-15 22:14N 50°01' W 001°48'3812.4
2017-Feb-15 19:09N 49°50' W 002°46'710.7
2017-Feb-15 18:31N 49°49' W 002°56'1010.1
2017-Feb-15 17:32N 49°46' W 003°10'9 9.6
2017-Feb-15 16:33N 49°43' W 003°24'10 9.5
2017-Feb-15 15:31N 49°37' W 003°37'7010.0
2017-Feb-15 08:32N 48°58' W 005°06'1312.3
2017-Feb-15 07:31N 48°52' W 005°22'  

Dump ship's entire track history